»·PEaware :: QXE2002 KSEA-KYKM

QXE2002 :: KSEA-KYKM

FLIGHT INFORMATION

Flight Status: Arrived
Operator:
Horizon Air
More flights by this operator :: More flights under this callsign
Pilot: Adlai G. (28854)
Aircraft: DEHAVILLAND DASH 8 400
(DH8D)
More flights by this aircraft type
Origin: KSEA Seattle-Tacoma Intl
United States
Destination: KYKM Yakima Air Term/Mcallister
United States
More flights between these airports :: More routes between these airports
Route: SEA7 VAMPS V298 YKM
File this flight plan on PilotEdge
Remarks:
Altitude:
(Current/Filed)
15,000ft
Speed:
(Current/Filed)
350kts
Departed: 11-Feb-21 01:30 PM
Arrived: 11-Feb-21 02:05 PM
Distance/Time
Traveled:
90nm/0:35
Distance/Time
To Go:
Arrived

Flight Plot

Page will automatically refresh every two minutes.

Flight plan parsing failed; only flown route is shown


Map Options




Map Legend


Flown Route
Filed Route
Departure Airport
Arrival Airport
Navaid (VOR, NDB)
Fix

Horizontal Profiles

Position Reports

Time Latitude Longitude Heading Altitude Ground
Speed
11-Feb-21 12:56 47.445395 -122.304597 49 440ft 0kts
11-Feb-21 12:56 47.445395 -122.304597 49 440ft 0kts
11-Feb-21 12:57 47.445395 -122.304597 49 440ft 0kts
11-Feb-21 12:58 47.445395 -122.304597 49 440ft 0kts
11-Feb-21 12:59 47.445395 -122.304597 49 440ft 0kts
11-Feb-21 13:00 47.445395 -122.304597 49 440ft 0kts
11-Feb-21 13:01 47.445395 -122.304597 49 440ft 0kts
11-Feb-21 13:02 47.445395 -122.304597 49 440ft 0kts
11-Feb-21 13:03 47.445395 -122.304597 49 440ft 0kts
11-Feb-21 13:04 47.445395 -122.304597 49 440ft 0kts
11-Feb-21 13:05 47.445395 -122.304597 49 440ft 0kts
11-Feb-21 13:06 47.445395 -122.304597 49 440ft 0kts
11-Feb-21 13:07 47.445395 -122.304597 49 440ft 0kts
11-Feb-21 13:08 47.445395 -122.304597 49 440ft 0kts
11-Feb-21 13:09 47.445395 -122.304597 49 440ft 0kts
11-Feb-21 13:10 47.445395 -122.304597 49 440ft 0kts
11-Feb-21 13:11 47.445395 -122.304597 49 440ft 0kts
11-Feb-21 13:12 47.445395 -122.304597 49 440ft 0kts
11-Feb-21 13:13 47.445395 -122.304597 49 440ft 0kts
11-Feb-21 13:14 47.445395 -122.304597 49 440ft 0kts
11-Feb-21 13:15 47.445395 -122.304597 49 440ft 0kts
11-Feb-21 13:16 47.445395 -122.304597 49 440ft 0kts
11-Feb-21 13:17 47.445395 -122.304597 49 440ft 0kts
11-Feb-21 13:18 47.445395 -122.304597 49 440ft 0kts
11-Feb-21 13:19 47.445045 -122.305391 71 440ft 2kts
11-Feb-21 13:20 47.444997 -122.305913 89 440ft 0kts
11-Feb-21 13:21 47.444997 -122.305913 89 440ft 0kts
11-Feb-21 13:22 47.444997 -122.305913 89 440ft 0kts
11-Feb-21 13:23 47.444992 -122.305874 99 440ft 1kts
11-Feb-21 13:24 47.443397 -122.306281 203 440ft 13kts
11-Feb-21 13:25 47.439903 -122.306354 178 440ft 12kts
11-Feb-21 13:26 47.434812 -122.305725 171 440ft 19kts
11-Feb-21 13:27 47.431823 -122.306160 220 440ft 10kts
11-Feb-21 13:28 47.431624 -122.307982 342 440ft 4kts
11-Feb-21 13:29 47.457028 -122.307111 3 1879ft 132kts
11-Feb-21 13:30 47.505292 -122.305359 1 3032ft 216kts
11-Feb-21 13:31 47.569007 -122.304569 0 3180ft 238kts
11-Feb-21 13:32 47.620176 -122.263103 81 6348ft 225kts
11-Feb-21 13:33 47.580499 -122.191449 145 8926ft 257kts
11-Feb-21 13:34 47.518274 -122.127921 149 10902ft 274kts
11-Feb-21 13:35 47.458768 -122.069436 148 13324ft 251kts
11-Feb-21 13:36 47.400569 -122.017671 137 14937ft 253kts
11-Feb-21 13:37 47.356639 -121.929734 114 15046ft 300kts
11-Feb-21 13:38 47.325882 -121.813983 101 15031ft 304kts
11-Feb-21 13:39 47.301645 -121.690773 101 15043ft 329kts
11-Feb-21 13:40 47.275770 -121.562192 106 15053ft 304kts
11-Feb-21 13:41 47.246526 -121.445719 102 15054ft 307kts
11-Feb-21 13:42 47.223144 -121.323105 113 15083ft 313kts
11-Feb-21 13:43 47.190684 -121.201947 125 15050ft 315kts
11-Feb-21 13:44 47.136685 -121.100156 130 15097ft 316kts
11-Feb-21 13:45 47.083343 -121.000948 130 14943ft 308kts
11-Feb-21 13:46 47.030678 -120.899971 132 14942ft 320kts
11-Feb-21 13:47 46.975333 -120.798763 132 14939ft 311kts
11-Feb-21 13:48 46.919878 -120.700390 126 13621ft 309kts
11-Feb-21 13:49 46.869415 -120.605208 126 11848ft 294kts
11-Feb-21 13:50 46.820320 -120.509781 122 10093ft 285kts
11-Feb-21 13:51 46.786255 -120.413553 100 8740ft 255kts
11-Feb-21 13:52 46.766510 -120.313424 114 8243ft 260kts
11-Feb-21 13:53 46.726319 -120.227444 133 7673ft 253kts
11-Feb-21 13:54 46.671383 -120.167205 150 7133ft 243kts
11-Feb-21 13:55 46.608618 -120.135100 168 6540ft 239kts
11-Feb-21 13:56 46.543072 -120.133208 188 5961ft 230kts
11-Feb-21 13:57 46.491081 -120.163265 246 5379ft 183kts
11-Feb-21 13:58 46.495209 -120.234285 285 4968ft 183kts
11-Feb-21 13:59 46.508573 -120.300383 290 4331ft 146kts
11-Feb-21 14:00 46.521722 -120.355356 291 3583ft 143kts
11-Feb-21 14:01 46.535134 -120.409487 288 2849ft 142kts
11-Feb-21 14:02 46.548203 -120.462164 291 2093ft 136kts
11-Feb-21 14:03 46.561071 -120.513647 291 1378ft 134kts
11-Feb-21 14:04 46.569916 -120.548673 321 1102ft 10kts
11-Feb-21 14:05 46.569979 -120.546275 109 1102ft 14kts
11-Feb-21 14:06 46.568851 -120.541711 109 1102ft 8kts
11-Feb-21 14:07 46.569945 -120.541231 358 1102ft 0kts
11-Feb-21 14:08 46.569945 -120.541231 358 1102ft 0kts
11-Feb-21 14:09 46.569945 -120.541231 358 1102ft 0kts
11-Feb-21 14:10 46.569945 -120.541231 358 1102ft 0kts
11-Feb-21 14:11 46.569945 -120.541231 358 1102ft 0kts

Navigation Log

Ident Type
Flight plan parsing failed, navigation log unavailable